Kiel-Holtenau Airport EDHK

Flugplatz Daten

Name: Kiel-Holtenau Airport

Ident: EDHK

Lat: 54,37944412

Long: 10,14527798

Platzhöhe: 102 ft

IataCode: KEL

City: Kiel

Metar

2021/10/25 23:20
EDHK 252320Z AUTO 24006KT 3500 R/////// // OVC003/// 10/09 Q1015

Taf

2013/08/11 06:39
TAF EDHK 110633Z 1106/1118 24005KT 9999 SCT030
BECMG 1106/1109 25010KT
TEMPO 1106/1118 27015G25KT 4500 SHRA BKN012CB
Gewünschte Webcam nicht vorhanden? Dann fügen Sie eine hinzu. Sie wird dann so schnell wie möglich freigeschaltet
Url: Title: